Rechercher aéroport 
image banner adimage banner adimage banner ad
image banner ad

KNTD - Point Mugu Nas (Naval Base Ventura Co)

Situé à Oxnard, United States

ICAO - NTD, IATA -

Données fournies par Airmate  

Information générale

Coordonnées: N34°7'9" W119°7'11"
Élévation : 13 feet MSL.
Variation magnétique : 12° East
Voir autres Aéroports à California

Données opérationnelles

Special qualification required
Heure actuelle UTC:
Heure actuelle locale:
Météo
METAR: KNTD 251252Z COR 00000KT 6SM BR OVC005 17/15 A2997 RMK AO2 SLP150 T01720150 VISNO N $
TAF: TAF KNTD 2507/2607 VRB06KT 9999 OVC007 QNH2991INS TEMPO 2508/2514 6000 BR OVC003 FM251400 VRB06KT 8000 BR BKN010 QNH2992INS FM251800 25009KT 9999 SCT020 BKN170 QNH2993INS FM260400 VRB06KT 9999 BKN007 QNH2987INS AUTOMATED SENSOR METWATCH 2507 TIL 2513 T15/2507Z T22/2522Z FS30176
Voir NOTAMs / SUP AIP / TFR affectant cet aéroport [VIEW]
Fréquences de communication: [VIEW]

Pistes:

Identifiant RWYQFULongueur (ft)Largeur (ft)SurfaceLDA (ft)
0344°11102200ASPH
21224°11102200ASPH
09105°5502200ASPH
27285°5502200ASPH

Coordonnées de l'aéroport

Adresse: Oxnard United States

Vue satellite de KNTD